Ana Sayfa
METAR-TAF:

METAR-TAF

Havaalanları :

New Orleans, Louisiana, Amerika Birleşik Devletleri

Louis Armstrong New Orleans Uluslararası Havalimanı

Enlem: 29-59-34N, Boylam: 090-15-03W, yükseklik: 1 m

Güncel hava durumu gözlemi

Rapor saat 18:53 UTC de 1 saat ve 1 dakika önce yapıldı.
Rüzgar kuzeydan 13 kt ve 19 kt'a kadar ani rüzgarlar
Sıcaklık -1°C
Nem 54%
Basınç 1036 hPa
Görüş mesafesi: 16.1 km
500 ft yükseklikte az bulutlu

METAR: KMSY 171853Z 35013G19KT 10SM FEW005 M01/M09 A3060 RMK AO2 SLP366 FU FEW005 T10111094

Saat: 13:54 (19:54 UTC)

Tahmin

Rapor saat 17:25 UTC de 2 saat ve 29 dakika önce yapıldı.
Ayın 17'si saat 18 UTC'den ayın 18'si saat 24 UTC'ye kadar geçerli Tahmin
Rüzgar kuzeydan 12 kt ve 20 kt'a kadar ani rüzgarlar
Görüş mesafesi: 10 km
1000 ft yükseklikte az bulutlu
Ayın 18'si saat 0300 UTC'den
Rüzgar kuzey/kuzeydoğudan 6 kt
Görüş mesafesi: 10 km
Açık gökyüzü

TAF: KMSY 171725Z 1718/1824 36012G20KT P6SM FEW010 FM180300 03006KT P6SM SKC

4.000'den fazla havaalanı için hava durumu gözlemleri ve tahminleri (METAR ve TAF raporları).

Kullanılabilir istasyonlar harita üzerinde sarı ve kırmızı noktalarla gösterilir.

İstasyonun adını görmek için fareyi noktanın üzerinde gezdirin.

Sonrasında hava gözlem ve tahminlerini görmek için tıklayın.

Haritayı değiştirmek için: yaklaştırmak için siyah artı işaretli yeşil düğmeye ve uzaklaştırmak için de eksi işaretli düğmeye hızla tıklayın; bitişik haritalar için yeşil okları kullanın.


METAR-TAF: